Time;durP1;ratioP1;P1;durP2;ratioP2;P2;SDS_P1;SDS_P2;PMS_P1;PMS_P2;Temp;Humidity;BMP_temperature;BMP_pressure;BME280_temperature;BME280_humidity;BME280_pressure;Samples;Min_cycle;Max_cycle;Signal;HPM_P1;HPM_P2
2022/02/19 00:00:00;;;;;;;11.55;2.80;;;7.90;99.90;;;;;;5085399;28;20020;-76
2022/02/19 00:02:27;;;;;;;10.07;2.70;;;7.90;99.90;;;;;;5090167;28;20060;-77
2022/02/19 00:04:52;;;;;;;10.77;1.83;;;7.90;99.90;;;;;;5083584;28;20072;-77
2022/02/19 00:07:18;;;;;;;10.77;2.28;;;7.90;99.90;;;;;;5089129;28;20024;-76
2022/02/19 00:09:43;;;;;;;13.95;3.00;;;7.90;99.90;;;;;;5082683;28;20064;-77
2022/02/19 00:12:09;;;;;;;12.93;2.58;;;7.90;99.90;;;;;;5086475;28;20066;-77
2022/02/19 00:14:35;;;;;;;14.35;2.63;;;7.90;99.90;;;;;;5090182;28;20024;-76
2022/02/19 00:17:03;;;;;;;11.05;2.25;;;7.80;99.90;;;;;;5085757;28;20044;-77
2022/02/19 00:19:30;;;;;;;16.08;2.17;;;7.80;99.90;;;;;;5090232;28;20021;-77
2022/02/19 00:21:55;;;;;;;10.65;2.65;;;7.70;99.90;;;;;;5091661;28;20540;-77
2022/02/19 00:24:21;;;;;;;16.48;2.95;;;7.70;99.90;;;;;;5088693;28;20092;-76
2022/02/19 00:26:47;;;;;;;18.40;2.78;;;7.80;99.90;;;;;;5092153;28;20116;-77
2022/02/19 00:29:13;;;;;;;10.93;2.17;;;7.80;99.90;;;;;;5086214;28;20093;-76
2022/02/19 00:31:38;;;;;;;13.60;2.40;;;7.80;99.90;;;;;;5088734;28;20024;-77
2022/02/19 00:34:04;;;;;;;14.55;2.97;;;7.70;99.90;;;;;;5089688;28;20036;-77
2022/02/19 00:36:30;;;;;;;13.55;2.10;;;7.60;99.90;;;;;;5087510;28;20086;-77
2022/02/19 00:38:55;;;;;;;12.40;2.70;;;7.60;99.90;;;;;;5089974;28;20036;-79
2022/02/19 00:41:21;;;;;;;14.05;3.17;;;7.70;99.90;;;;;;5090047;28;20499;-77
2022/02/19 00:43:47;;;;;;;10.15;2.30;;;7.60;99.90;;;;;;5090164;28;20032;-77
2022/02/19 00:46:12;;;;;;;13.40;2.60;;;7.60;99.90;;;;;;5086189;28;20024;-76
2022/02/19 00:48:38;;;;;;;12.32;2.70;;;7.70;99.90;;;;;;5092725;28;20031;-76
2022/02/19 00:51:05;;;;;;;9.10;1.95;;;7.60;99.90;;;;;;5092971;28;20032;-77
2022/02/19 00:53:30;;;;;;;10.77;2.33;;;7.70;99.90;;;;;;5089608;28;20084;-77
2022/02/19 00:55:56;;;;;;;9.75;2.42;;;7.70;99.90;;;;;;5084970;28;20064;-77
2022/02/19 00:58:21;;;;;;;9.93;2.38;;;7.80;99.90;;;;;;5091279;28;20024;-76
2022/02/19 01:00:47;;;;;;;13.63;2.35;;;7.70;99.90;;;;;;5090347;28;20380;-77
2022/02/19 01:03:13;;;;;;;10.57;2.22;;;7.70;99.90;;;;;;5088679;28;20821;-77
2022/02/19 01:05:39;;;;;;;16.17;2.25;;;7.80;99.90;;;;;;5092592;28;20020;-77
2022/02/19 01:08:05;;;;;;;6.93;1.92;;;7.70;99.90;;;;;;5087805;28;20035;-76
2022/02/19 01:10:31;;;;;;;12.48;2.40;;;7.70;99.90;;;;;;5090142;28;20077;-78
2022/02/19 01:12:57;;;;;;;7.93;1.98;;;7.70;99.90;;;;;;5087111;28;20040;-76
2022/02/19 01:15:23;;;;;;;12.65;2.35;;;7.70;99.90;;;;;;5090478;28;20018;-76
2022/02/19 01:17:49;;;;;;;14.55;2.25;;;7.70;99.90;;;;;;5090736;28;20115;-76
2022/02/19 01:20:15;;;;;;;10.80;2.05;;;7.70;99.90;;;;;;5087401;28;20102;-77
2022/02/19 01:22:42;;;;;;;15.02;2.70;;;7.70;99.90;;;;;;5087166;28;20089;-76
2022/02/19 01:25:11;;;;;;;15.38;2.58;;;7.70;99.90;;;;;;5087198;28;20104;-77
2022/02/19 01:27:37;;;;;;;10.48;1.75;;;7.70;99.90;;;;;;5083327;28;20055;-77
2022/02/19 01:30:05;;;;;;;10.85;2.22;;;7.70;99.90;;;;;;5087540;28;20068;-78
2022/02/19 01:32:31;;;;;;;10.48;1.77;;;7.60;99.90;;;;;;5088090;28;20487;-78
2022/02/19 01:34:57;;;;;;;11.50;2.45;;;7.60;99.90;;;;;;5092456;28;20062;-78
2022/02/19 01:37:22;;;;;;;10.82;2.33;;;7.70;99.90;;;;;;5083442;28;20388;-77
2022/02/19 01:39:48;;;;;;;10.63;2.08;;;7.80;99.90;;;;;;5092517;28;20495;-77
2022/02/19 01:42:13;;;;;;;8.88;1.75;;;7.70;99.90;;;;;;5094099;28;20514;-76
2022/02/19 01:44:44;;;;;;;10.32;1.95;;;7.80;99.90;;;;;;5091589;28;20020;-77
2022/02/19 01:47:10;;;;;;;6.68;1.60;;;7.70;99.90;;;;;;5092107;28;20085;-77
2022/02/19 01:49:36;;;;;;;10.73;1.95;;;7.80;99.90;;;;;;5084578;28;20038;-77
2022/02/19 01:52:03;;;;;;;12.50;2.58;;;7.70;99.90;;;;;;5090428;28;20020;-76
2022/02/19 01:54:29;;;;;;;12.05;2.60;;;7.60;99.90;;;;;;5087330;28;20066;-76
2022/02/19 01:56:54;;;;;;;8.20;1.95;;;7.70;99.90;;;;;;5090594;28;20115;-76
2022/02/19 01:59:20;;;;;;;12.68;2.05;;;7.70;99.90;;;;;;5090982;28;20111;-77
2022/02/19 02:01:46;;;;;;;14.00;2.08;;;7.60;99.90;;;;;;5091446;28;20062;-77
2022/02/19 02:04:12;;;;;;;12.30;2.50;;;7.60;99.90;;;;;;5092244;28;20384;-77
2022/02/19 02:06:42;;;;;;;9.25;1.90;;;7.70;99.90;;;;;;5089033;28;20469;-77
2022/02/19 02:09:07;;;;;;;8.60;1.92;;;7.60;99.90;;;;;;5088924;28;20111;-77
2022/02/19 02:11:33;;;;;;;8.02;2.00;;;7.60;99.90;;;;;;5089545;28;20151;-76
2022/02/19 02:13:59;;;;;;;9.65;2.20;;;7.70;99.90;;;;;;5084075;28;20114;-76
2022/02/19 02:16:43;;;;;;;13.45;2.10;;;7.60;99.90;;;;;;5090516;28;20028;-77
2022/02/19 02:19:10;;;;;;;7.47;2.03;;;7.50;99.90;;;;;;5083288;28;20401;-76
2022/02/19 02:21:39;;;;;;;10.50;1.77;;;7.60;99.90;;;;;;5089875;28;20028;-77
2022/02/19 02:24:06;;;;;;;7.03;1.95;;;7.60;99.90;;;;;;5085590;28;20038;-77
2022/02/19 02:26:32;;;;;;;7.25;2.10;;;7.50;99.90;;;;;;5087348;28;20072;-77
2022/02/19 02:28:58;;;;;;;10.20;1.65;;;7.60;99.90;;;;;;5086635;28;20028;-78
2022/02/19 02:31:24;;;;;;;12.68;2.67;;;7.50;99.90;;;;;;5084350;28;20034;-77
2022/02/19 02:33:52;;;;;;;11.05;1.77;;;7.50;99.90;;;;;;5091111;28;20031;-77
2022/02/19 02:36:18;;;;;;;11.38;1.60;;;7.40;99.90;;;;;;5085814;28;20036;-76
2022/02/19 02:38:45;;;;;;;11.20;1.85;;;7.40;99.90;;;;;;5088438;28;20437;-77
2022/02/19 02:41:11;;;;;;;4.35;1.58;;;7.50;99.90;;;;;;5088066;28;20059;-76
2022/02/19 02:43:36;;;;;;;6.78;1.42;;;7.60;99.90;;;;;;5090884;28;20473;-77
2022/02/19 02:46:03;;;;;;;9.05;1.58;;;7.50;99.90;;;;;;5091132;28;20039;-77
2022/02/19 02:48:29;;;;;;;11.82;2.10;;;7.40;99.90;;;;;;5091325;28;20043;-77
2022/02/19 02:50:56;;;;;;;9.70;2.13;;;7.40;99.90;;;;;;5089719;28;20426;-77
2022/02/19 02:53:24;;;;;;;6.10;2.13;;;7.30;99.90;;;;;;5084043;28;20500;-77
2022/02/19 02:55:50;;;;;;;9.85;2.08;;;7.40;99.90;;;;;;5090682;28;20024;-77
2022/02/19 02:58:16;;;;;;;10.55;1.92;;;7.40;99.90;;;;;;5084563;28;20024;-76
2022/02/19 03:00:42;;;;;;;9.55;2.03;;;7.40;99.90;;;;;;5088384;28;20024;-76
2022/02/19 03:03:08;;;;;;;9.90;1.75;;;7.40;99.90;;;;;;5078735;28;20023;-77
2022/02/19 03:05:33;;;;;;;16.10;2.00;;;7.40;99.90;;;;;;5091170;28;20024;-77
2022/02/19 03:07:59;;;;;;;11.77;1.88;;;7.40;99.90;;;;;;5085552;28;20464;-77
2022/02/19 03:10:25;;;;;;;6.53;1.67;;;7.40;99.90;;;;;;5085502;28;20506;-76
2022/02/19 03:12:50;;;;;;;11.70;2.35;;;7.40;99.90;;;;;;5094821;28;20036;-76
2022/02/19 03:15:18;;;;;;;8.52;2.05;;;7.50;99.90;;;;;;5087248;28;20017;-78
2022/02/19 03:17:48;;;;;;;9.82;1.92;;;7.40;99.90;;;;;;5088416;28;20028;-78
2022/02/19 03:20:16;;;;;;;6.88;1.75;;;7.40;99.90;;;;;;5083647;28;20733;-77
2022/02/19 03:22:44;;;;;;;11.70;2.05;;;7.50;99.90;;;;;;5086526;28;20028;-78
2022/02/19 03:25:12;;;;;;;7.70;1.80;;;7.40;99.90;;;;;;5087872;28;20024;-78
2022/02/19 03:27:38;;;;;;;9.73;2.10;;;7.50;99.90;;;;;;5085902;28;20020;-78
2022/02/19 03:30:05;;;;;;;12.82;1.77;;;7.50;99.90;;;;;;5088271;28;20088;-77
2022/02/19 03:32:30;;;;;;;6.35;2.38;;;7.40;99.90;;;;;;5086310;28;20099;-77
2022/02/19 03:34:56;;;;;;;10.65;2.03;;;7.40;99.90;;;;;;5087962;28;20520;-77
2022/02/19 03:37:21;;;;;;;6.55;1.73;;;7.40;99.90;;;;;;5085435;28;20036;-77
2022/02/19 03:39:47;;;;;;;6.38;1.83;;;7.30;99.90;;;;;;5086000;28;20381;-77
2022/02/19 03:42:13;;;;;;;9.75;1.60;;;7.30;99.90;;;;;;5089392;28;20397;-77
2022/02/19 03:44:38;;;;;;;9.77;1.90;;;7.30;99.90;;;;;;5084124;28;20024;-77
2022/02/19 03:47:04;;;;;;;10.90;2.15;;;7.40;99.90;;;;;;5089661;28;20051;-76
2022/02/19 03:49:29;;;;;;;9.77;2.13;;;7.40;99.90;;;;;;5081909;28;20036;-77
2022/02/19 03:51:55;;;;;;;15.45;2.38;;;7.40;99.90;;;;;;5088159;28;20024;-77
2022/02/19 03:54:21;;;;;;;12.60;1.83;;;7.30;99.90;;;;;;5093952;28;20102;-78
2022/02/19 03:56:46;;;;;;;6.00;1.38;;;7.30;99.90;;;;;;5088995;28;20033;-77
2022/02/19 03:59:14;;;;;;;7.30;1.40;;;7.20;99.90;;;;;;5094584;28;20028;-77
2022/02/19 04:01:43;;;;;;;6.80;1.30;;;7.30;99.90;;;;;;5087845;28;20031;-78
2022/02/19 04:04:09;;;;;;;9.27;1.60;;;7.30;99.90;;;;;;5095508;28;20017;-78
2022/02/19 04:06:35;;;;;;;11.73;1.80;;;7.30;99.90;;;;;;5084566;28;20039;-77
2022/02/19 04:09:01;;;;;;;10.13;1.88;;;7.30;99.90;;;;;;5093562;28;20111;-76
2022/02/19 04:11:27;;;;;;;7.55;1.85;;;7.10;99.90;;;;;;5090189;28;20111;-77
2022/02/19 04:13:52;;;;;;;10.95;2.00;;;7.10;99.90;;;;;;5091036;28;20036;-77
2022/02/19 04:16:18;;;;;;;12.38;1.83;;;7.10;99.90;;;;;;5091670;28;20420;-77
2022/02/19 04:18:44;;;;;;;9.35;1.45;;;7.00;99.90;;;;;;5089261;28;20377;-77
2022/02/19 04:21:09;;;;;;;8.93;2.47;;;6.90;99.90;;;;;;5091627;28;20028;-78
2022/02/19 04:23:36;;;;;;;7.55;2.30;;;6.90;99.90;;;;;;5091870;28;20031;-77
2022/02/19 04:26:02;;;;;;;13.68;1.65;;;6.90;99.90;;;;;;5088680;28;20036;-74
2022/02/19 04:28:27;;;;;;;11.25;1.80;;;7.00;99.90;;;;;;5089944;28;20107;-76
2022/02/19 04:30:54;;;;;;;12.45;1.70;;;6.90;99.90;;;;;;5091657;28;20110;-77
2022/02/19 04:33:20;;;;;;;10.15;2.00;;;6.90;99.90;;;;;;5088195;28;20016;-77
2022/02/19 04:35:46;;;;;;;11.45;1.85;;;6.90;99.90;;;;;;5092520;28;20088;-77
2022/02/19 04:38:15;;;;;;;11.13;2.05;;;7.00;99.90;;;;;;5084833;28;20036;-77
2022/02/19 04:40:42;;;;;;;8.52;1.77;;;6.90;99.90;;;;;;5091246;28;20032;-77
2022/02/19 04:43:08;;;;;;;10.48;2.17;;;6.90;99.90;;;;;;5087212;28;20392;-77
2022/02/19 04:45:34;;;;;;;8.20;1.48;;;6.90;99.90;;;;;;5091244;28;20031;-77
2022/02/19 04:48:00;;;;;;;7.50;2.15;;;6.90;99.90;;;;;;5094444;28;20024;-77
2022/02/19 04:50:26;;;;;;;13.88;1.80;;;6.80;99.90;;;;;;5091526;28;20473;-78
2022/02/19 04:52:52;;;;;;;8.23;2.30;;;6.90;99.90;;;;;;5091150;28;20393;-77
2022/02/19 04:55:17;;;;;;;10.70;2.05;;;6.80;99.90;;;;;;5085230;28;20375;-77
2022/02/19 04:57:44;;;;;;;12.65;1.73;;;6.70;99.90;;;;;;5090311;28;20032;-77
2022/02/19 05:00:12;;;;;;;6.55;2.10;;;6.90;99.90;;;;;;5094964;28;20017;-77
2022/02/19 05:02:38;;;;;;;14.20;1.90;;;6.70;99.90;;;;;;5086497;28;20032;-77
2022/02/19 05:05:04;;;;;;;8.77;2.00;;;6.80;99.90;;;;;;5087104;28;20396;-77
2022/02/19 05:07:30;;;;;;;12.25;1.90;;;6.70;99.90;;;;;;5092070;28;20468;-77
2022/02/19 05:09:56;;;;;;;13.90;2.10;;;6.80;99.90;;;;;;5085365;28;20039;-77
2022/02/19 05:12:21;;;;;;;11.35;2.40;;;6.70;99.90;;;;;;5088686;28;20031;-77
2022/02/19 05:14:47;;;;;;;11.13;1.65;;;6.80;99.90;;;;;;5092251;28;20480;-76
2022/02/19 05:17:12;;;;;;;13.43;2.55;;;6.70;99.90;;;;;;5086085;28;20469;-77
2022/02/19 05:19:38;;;;;;;9.73;1.80;;;6.70;99.90;;;;;;5090404;28;20016;-77
2022/02/19 05:22:04;;;;;;;8.48;1.60;;;6.60;99.90;;;;;;5089701;28;20024;-77
2022/02/19 05:24:29;;;;;;;6.13;1.80;;;6.60;99.90;;;;;;5089895;28;20008;-77
2022/02/19 05:26:55;;;;;;;11.63;1.85;;;6.60;99.90;;;;;;5082800;28;20074;-77
2022/02/19 05:29:21;;;;;;;11.25;1.90;;;6.60;99.90;;;;;;5089721;28;20034;-77
2022/02/19 05:31:46;;;;;;;14.15;2.50;;;6.50;99.90;;;;;;5093327;28;20020;-76
2022/02/19 05:34:12;;;;;;;10.02;1.73;;;6.50;99.90;;;;;;5090041;28;20035;-77
2022/02/19 05:36:38;;;;;;;17.70;1.80;;;6.50;99.90;;;;;;5083755;28;20123;-77
2022/02/19 05:39:04;;;;;;;6.93;1.83;;;6.50;99.90;;;;;;5088624;28;20044;-77
2022/02/19 05:41:30;;;;;;;12.18;2.17;;;6.50;99.90;;;;;;5085574;28;20094;-79
2022/02/19 05:43:55;;;;;;;10.90;2.03;;;6.40;99.90;;;;;;5089533;28;20075;-77
2022/02/19 05:46:21;;;;;;;8.52;1.90;;;6.40;99.90;;;;;;5087043;28;20115;-77
2022/02/19 05:48:47;;;;;;;10.00;2.53;;;6.40;99.90;;;;;;5086005;28;20138;-77
2022/02/19 05:51:12;;;;;;;8.95;2.15;;;6.40;99.90;;;;;;5087540;28;20028;-77
2022/02/19 05:53:38;;;;;;;10.70;2.53;;;6.40;99.90;;;;;;5084544;28;20039;-77
2022/02/19 05:56:04;;;;;;;13.07;1.77;;;6.30;99.90;;;;;;5090095;28;20027;-77
2022/02/19 05:58:30;;;;;;;10.63;1.80;;;6.30;99.90;;;;;;5083536;28;20051;-76
2022/02/19 06:00:58;;;;;;;8.75;2.13;;;6.20;99.90;;;;;;5084091;28;20086;-76
2022/02/19 06:03:23;;;;;;;9.70;2.80;;;6.30;99.90;;;;;;5086866;28;20020;-77
2022/02/19 06:05:49;;;;;;;11.65;2.22;;;6.20;99.90;;;;;;5089806;28;20026;-76
2022/02/19 06:08:14;;;;;;;10.48;2.70;;;6.20;99.90;;;;;;5083513;28;20099;-77
2022/02/19 06:10:40;;;;;;;7.30;2.03;;;6.20;99.90;;;;;;5089825;28;20182;-77
2022/02/19 06:13:06;;;;;;;9.75;2.60;;;6.20;99.90;;;;;;5082611;28;20057;-76
2022/02/19 06:15:32;;;;;;;10.98;2.58;;;6.30;99.90;;;;;;5088740;28;20032;-77
2022/02/19 06:17:57;;;;;;;15.82;2.40;;;6.40;99.90;;;;;;5089565;28;20111;-77
2022/02/19 06:20:23;;;;;;;11.27;2.15;;;6.30;99.90;;;;;;5083038;28;20543;-76
2022/02/19 06:22:48;;;;;;;10.82;2.00;;;6.30;99.90;;;;;;5089646;28;20036;-77
2022/02/19 06:25:14;;;;;;;12.05;2.40;;;6.30;99.90;;;;;;5080319;28;20044;-77
2022/02/19 06:27:44;;;;;;;11.23;1.83;;;6.20;99.90;;;;;;5089580;28;20094;-77
2022/02/19 06:30:10;;;;;;;14.38;2.03;;;6.20;99.90;;;;;;5088471;28;20043;-76
2022/02/19 06:32:37;;;;;;;14.48;2.28;;;6.10;99.90;;;;;;5084495;28;20024;-76
2022/02/19 06:35:03;;;;;;;13.63;2.65;;;6.10;99.90;;;;;;5090511;28;20055;-77
2022/02/19 06:37:29;;;;;;;13.07;2.53;;;6.10;99.90;;;;;;5090473;28;20496;-77
2022/02/19 06:39:54;;;;;;;12.77;2.20;;;6.10;99.90;;;;;;5086496;28;20059;-78
2022/02/19 06:42:20;;;;;;;15.32;2.38;;;6.10;99.90;;;;;;5047444;28;1090817;-76
2022/02/19 06:44:45;;;;;;;17.05;2.30;;;6.10;99.90;;;;;;5091326;28;20025;-77
2022/02/19 06:47:11;;;;;;;16.85;2.03;;;6.10;99.90;;;;;;5086343;28;20464;-78
2022/02/19 06:49:37;;;;;;;9.10;2.58;;;6.10;99.90;;;;;;5091254;28;20028;-78
2022/02/19 06:52:02;;;;;;;11.10;2.83;;;6.10;99.90;;;;;;5090453;28;20153;-78
2022/02/19 06:54:28;;;;;;;15.30;2.53;;;6.10;99.90;;;;;;5088735;28;20020;-77
2022/02/19 06:56:55;;;;;;;13.85;2.67;;;6.10;99.90;;;;;;5087060;28;20040;-77
2022/02/19 06:59:21;;;;;;;10.52;2.42;;;6.10;99.90;;;;;;5085924;28;20595;-77
2022/02/19 07:01:46;;;;;;;21.42;3.00;;;6.00;99.90;;;;;;5091773;28;20122;-77
2022/02/19 07:04:15;;;;;;;14.75;2.60;;;6.20;99.90;;;;;;5090794;28;20125;-78
2022/02/19 07:06:41;;;;;;;18.67;2.53;;;6.10;99.90;;;;;;5085133;28;20607;-77
2022/02/19 07:09:06;;;;;;;15.93;2.35;;;6.20;99.90;;;;;;5090674;28;20095;-76
2022/02/19 07:11:32;;;;;;;16.92;2.88;;;6.20;99.90;;;;;;5090525;28;20069;-76
2022/02/19 07:13:57;;;;;;;11.82;2.70;;;6.20;99.90;;;;;;5088044;28;20491;-76
2022/02/19 07:16:23;;;;;;;16.23;3.42;;;6.20;99.90;;;;;;5088642;28;20035;-77
2022/02/19 07:18:49;;;;;;;14.00;2.95;;;6.10;99.90;;;;;;5091055;28;20035;-78
2022/02/19 07:21:15;;;;;;;14.30;3.05;;;6.00;99.90;;;;;;5081887;28;20069;-77
2022/02/19 07:23:40;;;;;;;13.90;2.50;;;6.10;99.90;;;;;;5089718;28;20024;-77
2022/02/19 07:26:06;;;;;;;11.65;3.00;;;6.00;99.90;;;;;;5088825;28;20024;-77
2022/02/19 07:28:31;;;;;;;14.43;2.42;;;6.10;99.90;;;;;;5084957;28;20099;-76
2022/02/19 07:30:57;;;;;;;15.82;3.63;;;6.20;99.90;;;;;;5086080;28;20032;-76
2022/02/19 07:33:23;;;;;;;16.48;2.67;;;6.30;99.90;;;;;;5089853;28;20081;-76
2022/02/19 07:35:48;;;;;;;15.50;2.17;;;6.30;99.90;;;;;;5089712;28;20535;-75
2022/02/19 07:38:14;;;;;;;10.90;2.78;;;6.30;99.90;;;;;;5088614;28;20075;-74
2022/02/19 07:40:40;;;;;;;19.00;2.15;;;6.40;99.90;;;;;;5089225;28;20024;-75
2022/02/19 07:43:05;;;;;;;14.77;2.28;;;6.30;99.90;;;;;;5092545;28;20431;-76
2022/02/19 07:45:31;;;;;;;16.50;2.42;;;6.40;99.90;;;;;;5086708;28;20100;-75
2022/02/19 07:47:56;;;;;;;14.18;2.40;;;6.30;99.90;;;;;;5083898;28;20024;-75
2022/02/19 07:58:34;;;;;;;15.48;2.53;;;6.40;99.90;;;;;;5083780;28;20055;-75
2022/02/19 08:01:05;;;;;;;15.18;2.47;;;6.50;99.90;;;;;;5089383;28;20024;-76
2022/02/19 08:03:32;;;;;;;21.02;3.00;;;6.50;99.90;;;;;;5089750;28;20031;-75
2022/02/19 08:05:58;;;;;;;15.02;2.70;;;6.60;99.90;;;;;;5090077;28;20025;-75
2022/02/19 08:08:24;;;;;;;14.90;2.95;;;6.70;99.90;;;;;;5088316;28;20024;-76
2022/02/19 08:10:50;;;;;;;15.63;3.28;;;6.70;99.90;;;;;;5081263;28;20027;-75
2022/02/19 08:13:18;;;;;;;14.35;2.85;;;6.80;99.90;;;;;;5091630;28;20361;-75
2022/02/19 08:15:49;;;;;;;15.23;2.45;;;6.80;99.90;;;;;;5089447;28;20024;-80
2022/02/19 08:18:15;;;;;;;14.60;2.95;;;6.80;99.90;;;;;;5084779;28;20041;-76
2022/02/19 08:20:43;;;;;;;11.10;3.42;;;6.90;99.90;;;;;;5086865;28;20028;-75
2022/02/19 08:23:11;;;;;;;15.63;2.90;;;7.00;99.90;;;;;;5082289;28;20017;-75
2022/02/19 08:25:38;;;;;;;10.55;2.30;;;7.00;99.90;;;;;;5088397;28;20024;-74
2022/02/19 08:28:05;;;;;;;12.90;2.70;;;7.10;99.90;;;;;;5087268;28;20077;-74
2022/02/19 08:30:35;;;;;;;12.93;3.00;;;7.20;99.90;;;;;;5085193;28;20016;-75
2022/02/19 08:33:01;;;;;;;17.38;2.88;;;7.40;99.90;;;;;;5081655;28;20031;-75
2022/02/19 08:35:27;;;;;;;9.98;2.55;;;7.50;99.90;;;;;;5081289;28;20028;-74
2022/02/19 08:37:53;;;;;;;12.40;2.65;;;7.50;99.90;;;;;;5088703;28;20085;-75
2022/02/19 08:40:18;;;;;;;13.05;2.35;;;7.50;99.90;;;;;;5095145;28;20020;-74
2022/02/19 08:42:44;;;;;;;15.02;3.15;;;7.50;99.90;;;;;;5088274;28;20031;-75
2022/02/19 08:45:11;;;;;;;13.43;2.70;;;7.50;99.90;;;;;;5090790;28;20440;-74
2022/02/19 08:47:37;;;;;;;10.65;3.20;;;7.60;99.90;;;;;;5087912;28;20051;-74
2022/02/19 08:50:04;;;;;;;14.63;2.20;;;7.70;99.90;;;;;;5085838;28;20060;-75
2022/02/19 08:52:31;;;;;;;11.13;2.88;;;7.80;99.90;;;;;;5090978;28;20028;-76
2022/02/19 08:54:57;;;;;;;11.70;2.50;;;7.90;99.90;;;;;;5086806;28;20012;-75
2022/02/19 08:57:22;;;;;;;13.18;2.28;;;7.90;99.90;;;;;;5090099;28;20032;-76
2022/02/19 08:59:48;;;;;;;13.48;2.88;;;8.00;99.90;;;;;;5094680;28;20444;-75
2022/02/19 09:02:14;;;;;;;13.45;3.00;;;8.10;99.90;;;;;;5091370;28;20023;-76
2022/02/19 09:04:39;;;;;;;10.95;3.42;;;8.20;99.90;;;;;;5086768;28;20354;-74
2022/02/19 09:07:05;;;;;;;15.50;2.85;;;8.30;99.90;;;;;;5092568;28;20104;-75
2022/02/19 09:09:32;;;;;;;11.18;2.28;;;8.40;99.90;;;;;;5088764;28;20029;-75
2022/02/19 09:11:59;;;;;;;9.73;3.00;;;8.40;99.90;;;;;;5088499;28;20020;-76
2022/02/19 09:14:24;;;;;;;11.00;2.03;;;8.40;99.90;;;;;;5090648;28;20028;-76
2022/02/19 09:16:50;;;;;;;19.25;3.08;;;8.40;99.90;;;;;;5090006;28;20054;-76
2022/02/19 09:19:15;;;;;;;10.55;2.28;;;8.40;99.90;;;;;;5089027;28;20036;-75
2022/02/19 09:21:43;;;;;;;17.77;3.05;;;8.50;99.90;;;;;;5089621;28;20073;-74
2022/02/19 09:24:08;;;;;;;10.63;2.00;;;8.60;99.90;;;;;;5091941;28;20027;-74
2022/02/19 09:26:34;;;;;;;11.18;2.20;;;8.50;99.90;;;;;;5085511;28;20017;-74
2022/02/19 09:29:00;;;;;;;11.85;2.75;;;8.50;99.90;;;;;;5091147;28;20525;-73
2022/02/19 09:31:26;;;;;;;11.27;2.05;;;8.50;99.90;;;;;;5092576;28;20021;-74
2022/02/19 09:33:52;;;;;;;10.20;2.30;;;8.50;99.90;;;;;;5090656;28;20020;-74
2022/02/19 09:36:17;;;;;;;8.02;2.25;;;8.50;99.90;;;;;;5092242;28;20376;-73
2022/02/19 09:38:43;;;;;;;13.93;2.72;;;8.60;99.90;;;;;;5091677;28;20040;-73
2022/02/19 09:41:12;;;;;;;11.23;2.40;;;8.70;99.90;;;;;;5089580;28;20479;-74
2022/02/19 09:43:38;;;;;;;10.88;2.40;;;9.00;99.90;;;;;;5091989;28;20028;-74
2022/02/19 09:46:05;;;;;;;14.55;2.45;;;9.00;99.90;;;;;;5089394;28;20495;-74
2022/02/19 09:48:32;;;;;;;10.02;2.40;;;9.00;99.90;;;;;;5082790;28;20032;-74
2022/02/19 09:50:58;;;;;;;10.48;1.92;;;9.10;99.90;;;;;;5087227;28;20023;-73
2022/02/19 09:53:25;;;;;;;13.13;2.85;;;9.10;99.90;;;;;;5088177;28;20028;-74
2022/02/19 09:55:52;;;;;;;17.48;2.47;;;9.20;99.90;;;;;;5088136;28;20072;-74
2022/02/19 09:58:18;;;;;;;11.80;1.90;;;9.30;99.90;;;;;;5091186;28;20032;-73
2022/02/19 10:00:46;;;;;;;10.45;2.20;;;9.30;99.90;;;;;;5085731;28;20044;-73
2022/02/19 10:03:21;;;;;;;9.85;2.10;;;9.30;99.90;;;;;;5089010;28;20074;-73
2022/02/19 10:05:47;;;;;;;8.57;2.08;;;9.30;99.90;;;;;;5084210;28;20028;-73
2022/02/19 10:08:13;;;;;;;12.20;2.42;;;9.40;99.90;;;;;;5090499;28;20063;-73
2022/02/19 10:10:51;;;;;;;9.15;2.38;;;9.50;99.90;;;;;;5085087;28;20048;-73
2022/02/19 10:13:43;;;;;;;18.23;2.33;;;9.50;99.90;;;;;;5088069;28;20037;-75
2022/02/19 10:16:10;;;;;;;13.05;2.40;;;9.50;99.90;;;;;;5091017;28;20012;-73
2022/02/19 10:18:45;;;;;;;7.88;2.15;;;9.50;99.90;;;;;;5087242;28;20055;-74
2022/02/19 10:21:19;;;;;;;15.10;2.05;;;9.30;99.90;;;;;;5089738;28;20055;-73
2022/02/19 10:23:58;;;;;;;9.82;1.83;;;9.20;99.90;;;;;;5091619;28;20028;-73
2022/02/19 10:26:31;;;;;;;10.93;2.13;;;9.40;99.90;;;;;;5089332;28;20034;-74
2022/02/19 10:28:59;;;;;;;15.55;2.05;;;9.50;99.90;;;;;;5083368;28;20024;-72
2022/02/19 10:31:26;;;;;;;8.38;1.90;;;9.50;99.90;;;;;;5088276;28;20028;-72
2022/02/19 10:34:04;;;;;;;10.55;2.47;;;9.60;99.90;;;;;;5088107;28;20047;-78
2022/02/19 10:36:45;;;;;;;8.95;1.92;;;9.60;99.90;;;;;;5088775;28;20081;-77
2022/02/19 10:39:11;;;;;;;11.50;2.03;;;9.40;99.90;;;;;;5088755;28;20500;-77
2022/02/19 10:41:39;;;;;;;9.10;1.90;;;9.30;99.90;;;;;;5088265;28;20027;-77
2022/02/19 10:44:25;;;;;;;11.60;2.40;;;9.30;99.90;;;;;;5087390;28;20085;-76
2022/02/19 10:46:55;;;;;;;8.13;1.63;;;9.30;99.90;;;;;;5089241;28;20115;-76
2022/02/19 10:49:23;;;;;;;9.50;2.50;;;9.40;99.90;;;;;;5090035;28;20076;-76
2022/02/19 10:51:49;;;;;;;7.93;1.52;;;9.70;99.90;;;;;;5089780;28;20023;-78
2022/02/19 10:54:20;;;;;;;13.57;2.28;;;9.80;99.90;;;;;;5085993;28;20150;-77
2022/02/19 10:56:46;;;;;;;6.88;1.25;;;9.80;99.90;;;;;;5086299;28;20036;-78
2022/02/19 10:59:13;;;;;;;6.22;1.77;;;9.70;99.90;;;;;;5089392;28;20035;-78
2022/02/19 11:01:41;;;;;;;14.85;1.67;;;9.80;99.90;;;;;;5082432;28;20017;-78
2022/02/19 11:04:08;;;;;;;12.60;2.20;;;9.80;99.90;;;;;;5089558;28;20016;-78
2022/02/19 11:06:35;;;;;;;11.07;2.10;;;9.90;99.90;;;;;;5089243;28;20532;-77
2022/02/19 11:09:06;;;;;;;8.77;1.73;;;10.10;99.90;;;;;;5092130;28;20051;-78
2022/02/19 11:11:36;;;;;;;9.02;2.00;;;10.00;99.90;;;;;;5088125;28;20066;-77
2022/02/19 11:14:06;;;;;;;10.52;1.95;;;9.80;99.90;;;;;;5085524;28;20468;-77
2022/02/19 11:16:33;;;;;;;4.70;1.92;;;9.80;99.90;;;;;;5084044;28;20033;-78
2022/02/19 11:18:59;;;;;;;10.90;2.10;;;9.90;99.90;;;;;;5088699;28;20020;-78
2022/02/19 11:21:27;;;;;;;7.88;1.65;;;9.90;99.90;;;;;;5086564;28;20020;-78
2022/02/19 11:23:56;;;;;;;10.80;2.80;;;10.10;99.90;;;;;;5084040;28;20463;-78
2022/02/19 11:26:23;;;;;;;9.35;1.95;;;10.30;99.90;;;;;;5085790;28;20461;-78
2022/02/19 11:28:52;;;;;;;7.68;1.73;;;10.30;99.90;;;;;;5082741;28;20397;-79
2022/02/19 11:31:19;;;;;;;9.98;2.15;;;10.30;99.90;;;;;;5081663;28;20024;-78
2022/02/19 11:33:49;;;;;;;8.13;1.80;;;10.20;99.90;;;;;;5082559;28;20031;-78
2022/02/19 11:36:14;;;;;;;9.65;2.03;;;10.20;99.90;;;;;;5080522;28;20061;-78
2022/02/19 11:38:50;;;;;;;13.00;2.33;;;10.30;99.90;;;;;;5089128;28;20426;-77
2022/02/19 11:41:40;;;;;;;10.75;2.10;;;10.50;99.90;;;;;;5087230;28;20461;-78
2022/02/19 11:44:21;;;;;;;10.70;2.10;;;10.60;99.90;;;;;;5084021;28;20032;-78
2022/02/19 11:46:47;;;;;;;10.07;2.08;;;10.70;99.90;;;;;;5087871;28;20016;-78
2022/02/19 11:49:22;;;;;;;8.38;1.77;;;10.70;99.90;;;;;;5084467;28;20099;-77
2022/02/19 11:52:06;;;;;;;8.50;1.77;;;10.80;99.90;;;;;;5089838;28;20073;-78
2022/02/19 11:54:33;;;;;;;8.02;1.80;;;10.70;99.90;;;;;;5086963;28;20048;-78
2022/02/19 11:57:15;;;;;;;6.85;2.55;;;10.70;99.90;;;;;;5086448;28;20024;-77
2022/02/19 11:59:42;;;;;;;;;;;10.50;99.90;;;;;;5089489;28;20035;-77
2022/02/19 12:02:14;;;;;;;10.68;2.58;;;10.40;99.90;;;;;;5085322;28;19911;-77
2022/02/19 12:04:40;;;;;;;10.83;2.67;;;10.20;99.90;;;;;;5089763;28;20028;-77
2022/02/19 12:07:14;;;;;;;11.45;2.67;;;10.30;99.90;;;;;;5090050;28;20449;-77
2022/02/19 12:10:06;;;;;;;9.25;1.70;;;10.60;99.90;;;;;;5084475;28;20440;-77
2022/02/19 12:13:06;;;;;;;7.10;2.10;;;10.70;99.90;;;;;;5089629;28;20028;-81
2022/02/19 12:15:33;;;;;;;6.35;1.33;;;10.70;99.90;;;;;;5091073;28;20032;-76
2022/02/19 12:17:58;;;;;;;5.40;1.30;;;10.70;99.90;;;;;;5090459;28;20125;-77
2022/02/19 12:20:30;;;;;;;5.95;1.40;;;10.80;99.90;;;;;;5087538;28;20028;-81
2022/02/19 12:23:03;;;;;;;8.60;1.90;;;10.90;99.90;;;;;;5093303;28;20161;-79
2022/02/19 12:25:54;;;;;;;10.45;2.05;;;10.90;99.90;;;;;;5089713;28;20028;-79
2022/02/19 12:28:19;;;;;;;8.48;2.05;;;10.80;99.90;;;;;;5090260;28;20025;-78
2022/02/19 12:30:46;;;;;;;9.20;2.20;;;10.80;99.90;;;;;;5090718;28;20077;-77
2022/02/19 12:33:12;;;;;;;5.25;1.77;;;10.40;99.90;;;;;;5086547;28;20452;-77
2022/02/19 12:35:44;;;;;;;12.48;1.85;;;10.30;99.90;;;;;;5089361;28;20139;-78
2022/02/19 12:38:14;;;;;;;6.30;1.63;;;10.20;99.90;;;;;;5093927;28;20036;-78
2022/02/19 12:40:41;;;;;;;6.25;1.80;;;10.20;99.90;;;;;;5092024;28;20081;-78
2022/02/19 12:43:12;;;;;;;29.38;11.93;;;10.50;99.90;;;;;;5085815;28;20043;-78
2022/02/19 12:45:38;;;;;;;5.43;1.55;;;10.40;99.90;;;;;;5089856;28;20457;-76
2022/02/19 12:48:04;;;;;;;5.60;1.77;;;10.50;99.90;;;;;;5084026;28;20429;-75
2022/02/19 12:50:30;;;;;;;10.10;1.88;;;10.50;99.90;;;;;;5085791;28;20028;-76
2022/02/19 12:52:56;;;;;;;9.35;1.52;;;10.40;99.90;;;;;;5089182;28;20073;-76
2022/02/19 12:55:22;;;;;;;6.20;1.60;;;10.40;99.90;;;;;;5092848;28;20111;-75